createdAt,value
2023-05-05T00:00:42.271Z,95781.16
2023-05-05T00:01:45.203Z,95781.16
2023-05-05T00:02:47.486Z,95778.84
2023-05-05T00:03:50.542Z,95778.84
2023-05-05T00:04:53.819Z,95782.84
2023-05-05T00:05:56.790Z,95779.28
2023-05-05T00:06:58.673Z,95785.59
2023-05-05T00:08:01.513Z,95781.28
2023-05-05T00:09:03.619Z,95785.25
2023-05-05T00:10:07.671Z,95782.94
2023-05-05T00:11:09.767Z,95781.41
2023-05-05T00:12:12.941Z,95784.94
2023-05-05T00:13:15.341Z,95782.94
2023-05-05T00:14:18.240Z,95787.69
2023-05-05T00:15:20.064Z,95784.63
2023-05-05T00:16:23.361Z,95783.06
2023-05-05T00:17:25.543Z,95780.31
2023-05-05T00:18:29.503Z,95776.03
2023-05-05T00:19:31.486Z,95773.25
2023-05-05T00:20:35.700Z,95772.94
2023-05-05T00:21:37.573Z,95778.91
2023-05-05T00:22:40.616Z,95776.63
2023-05-05T00:23:42.579Z,95775.06
2023-05-05T00:24:45.474Z,95772.00
2023-05-05T00:25:47.416Z,95773.56
2023-05-05T00:26:51.088Z,95771.25
2023-05-05T00:27:53.066Z,95773.22
2023-05-05T00:28:56.024Z,95781.94
2023-05-05T00:29:57.891Z,95781.94
2023-05-05T00:31:01.574Z,95778.09
2023-05-05T00:32:03.606Z,95772.59
2023-05-05T00:33:06.596Z,95783.63
2023-05-05T00:34:08.523Z,95775.34
2023-05-05T00:35:11.420Z,95778.88
2023-05-05T00:36:15.357Z,95777.34
2023-05-05T00:37:18.324Z,95775.81
2023-05-05T00:38:20.567Z,95772.75
2023-05-05T00:39:23.461Z,95767.25
2023-05-05T00:40:25.399Z,95771.97
2023-05-05T00:41:27.309Z,95771.19
2023-05-05T00:42:40.565Z,95775.94
2023-05-05T00:43:42.488Z,95770.88
2023-05-05T00:44:45.993Z,95772.88
2023-05-05T00:45:55.942Z,95765.84
2023-05-05T00:46:59.194Z,95770.13
2023-05-05T00:48:01.647Z,95766.59
2023-05-05T00:49:05.245Z,95765.84
2023-05-05T00:50:09.274Z,95773.78
2023-05-05T00:51:12.916Z,95766.28
2023-05-05T00:52:16.185Z,95762.75
2023-05-05T00:53:19.120Z,95765.22
2023-05-05T00:54:21.928Z,95763.66
2023-05-05T00:55:26.192Z,95760.59
2023-05-05T00:56:29.130Z,95762.13
2023-05-05T00:57:32.359Z,95764.56
2023-05-05T00:58:37.598Z,95764.56
2023-05-05T00:59:39.829Z,95765.81
2023-05-05T01:00:42.882Z,95765.81
2023-05-05T01:01:45.763Z,95763.81
2023-05-05T01:02:48.731Z,95765.47
2023-05-05T01:03:50.728Z,95759.97
2023-05-05T01:04:54.511Z,95759.22
2023-05-05T01:06:03.379Z,95758.09
2023-05-05T01:07:19.847Z,95758.09
2023-05-05T01:08:35.533Z,95763.59
2023-05-05T01:09:50.701Z,95756.25
2023-05-05T01:11:03.140Z,95757.81
2023-05-05T01:12:16.589Z,95749.97
2023-05-05T01:13:28.807Z,95757.94
2023-05-05T01:14:40.860Z,95759.94
2023-05-05T01:15:50.627Z,95751.66
2023-05-05T01:16:59.859Z,95756.41
2023-05-05T01:18:09.836Z,95766.63
2023-05-05T01:19:28.496Z,95761.13
2023-05-05T01:20:41.303Z,95765.13
2023-05-05T01:21:47.598Z,95759.59
2023-05-05T01:22:54.842Z,95755.78
2023-05-05T01:24:46.848Z,95752.69
2023-05-05T01:26:24.532Z,95761.41
2023-05-05T01:27:40.065Z,95751.63
2023-05-05T01:29:00.814Z,95752.81
2023-05-05T01:30:13.654Z,95764.75
2023-05-05T01:31:32.674Z,95758.47
2023-05-05T01:32:42.036Z,95749.44
2023-05-05T01:33:47.975Z,95759.25
2023-05-05T01:34:56.493Z,95761.66
2023-05-05T01:36:07.580Z,95758.59
2023-05-05T01:37:13.215Z,95764.56
2023-05-05T01:38:17.534Z,95755.53
2023-05-05T01:39:22.074Z,95759.81
2023-05-05T01:40:28.004Z,95756.75
2023-05-05T01:41:34.377Z,95756.44
2023-05-05T01:42:41.750Z,95759.19
2023-05-05T01:43:47.476Z,95754.91
2023-05-05T01:44:54.231Z,95761.94
2023-05-05T01:45:58.247Z,95757.66
2023-05-05T01:47:04.500Z,95757.66
2023-05-05T01:48:08.235Z,95760.72
2023-05-05T01:49:12.690Z,95762.69
2023-05-05T01:50:16.178Z,95754.91
2023-05-05T01:51:23.426Z,95758.09
2023-05-05T01:52:27.998Z,95755.34
2023-05-05T01:53:32.494Z,95755.78
2023-05-05T01:54:35.237Z,95757.03
2023-05-05T01:55:40.133Z,95765.28
2023-05-05T01:56:43.716Z,95762.53
2023-05-05T01:57:48.341Z,95759.78
2023-05-05T01:58:52.319Z,95764.97
2023-05-05T01:59:56.834Z,95759.44
2023-05-05T02:00:59.246Z,95765.41
2023-05-05T02:02:04.868Z,95762.66
2023-05-05T02:03:08.488Z,95760.53
2023-05-05T02:04:14.430Z,95754.38
2023-05-05T02:05:19.240Z,95765.88
2023-05-05T02:06:24.325Z,95762.00
2023-05-05T02:07:27.431Z,95752.22
2023-05-05T02:08:32.129Z,95760.91
2023-05-05T02:09:34.656Z,95760.91
2023-05-05T02:10:40.814Z,95760.91
2023-05-05T02:11:42.896Z,95759.41
2023-05-05T02:12:47.763Z,95753.13
2023-05-05T02:13:51.269Z,95759.06
2023-05-05T02:14:55.107Z,95760.31
2023-05-05T02:15:57.497Z,95757.56
2023-05-05T02:17:01.764Z,95755.88
2023-05-05T02:18:07.344Z,95759.41
2023-05-05T02:19:12.141Z,95759.06
2023-05-05T02:20:16.184Z,95765.81
2023-05-05T02:21:20.052Z,95765.81
2023-05-05T02:22:22.026Z,95764.25
2023-05-05T02:23:24.955Z,95762.72
2023-05-05T02:24:27.066Z,95765.94
2023-05-05T02:25:36.624Z,95766.69
2023-05-05T02:26:40.125Z,95759.66
2023-05-05T02:27:46.205Z,95767.34
2023-05-05T02:28:52.583Z,95760.41
2023-05-05T02:30:00.648Z,95760.53
2023-05-05T02:31:05.138Z,95759.78
2023-05-05T02:32:12.465Z,95765.75
2023-05-05T02:33:18.333Z,95763.88
2023-05-05T02:34:25.115Z,95756.50
2023-05-05T02:35:34.617Z,95765.97
2023-05-05T02:36:40.792Z,95762.03
2023-05-05T02:37:46.637Z,95757.72
2023-05-05T02:38:54.168Z,95758.94
2023-05-05T02:40:00.903Z,95753.44
2023-05-05T02:41:12.437Z,95765.09
2023-05-05T02:42:20.903Z,95763.38
2023-05-05T02:43:27.867Z,95763.22
2023-05-05T02:44:33.999Z,95767.19
2023-05-05T02:45:36.186Z,95765.53
2023-05-05T02:46:39.825Z,95760.78
2023-05-05T02:47:41.789Z,95764.78
2023-05-05T02:48:46.131Z,95769.19
2023-05-05T02:49:48.114Z,95765.03
2023-05-05T02:50:50.979Z,95763.47
2023-05-05T02:51:59.951Z,95767.78
2023-05-05T02:53:07.427Z,95766.56
2023-05-05T02:54:09.931Z,95773.28
2023-05-05T02:55:13.788Z,95766.56
2023-05-05T02:56:26.958Z,95777.91
2023-05-05T02:57:39.171Z,95774.00
2023-05-05T02:58:48.414Z,95778.59
2023-05-05T03:00:05.781Z,95777.84
2023-05-05T03:01:17.753Z,95774.31
2023-05-05T03:02:27.283Z,95770.03
2023-05-05T03:03:38.899Z,95775.13
2023-05-05T03:04:48.383Z,95772.28
2023-05-05T03:05:57.880Z,95768.00
2023-05-05T03:07:08.323Z,95770.75
2023-05-05T03:08:14.532Z,95769.53
2023-05-05T03:09:23.942Z,95769.53
2023-05-05T03:10:30.122Z,95766.78
2023-05-05T03:11:39.458Z,95762.19
2023-05-05T03:12:46.085Z,95765.38
2023-05-05T03:14:05.084Z,95767.69
2023-05-05T03:15:10.518Z,95772.44
2023-05-05T03:16:16.371Z,95767.34
2023-05-05T03:17:20.312Z,95770.88
2023-05-05T03:18:25.275Z,95761.09
2023-05-05T03:19:36.844Z,95768.56
2023-05-05T03:20:41.662Z,95763.06
2023-05-05T03:21:47.274Z,95761.53
2023-05-05T03:22:50.060Z,95762.28
2023-05-05T03:23:53.062Z,95760.75
2023-05-05T03:24:57.200Z,95762.75
2023-05-05T03:26:00.671Z,95754.50
2023-05-05T03:27:09.342Z,95760.75
2023-05-05T03:28:15.308Z,95761.53
2023-05-05T03:29:17.265Z,95769.34
2023-05-05T03:30:21.391Z,95762.75
2023-05-05T03:31:28.382Z,95766.59
2023-05-05T03:32:34.226Z,95765.81
2023-05-05T03:33:36.363Z,95767.78
2023-05-05T03:34:39.507Z,95765.50
2023-05-05T03:35:42.772Z,95768.69
2023-05-05T03:36:48.110Z,95779.72
2023-05-05T03:37:51.310Z,95774.97
2023-05-05T03:38:54.680Z,95771.88
2023-05-05T03:39:58.457Z,95771.56
2023-05-05T03:41:02.049Z,95773.22
2023-05-05T03:42:04.998Z,95775.22
2023-05-05T03:43:09.478Z,95770.91
2023-05-05T03:44:13.255Z,95773.38
2023-05-05T03:45:15.151Z,95769.06
2023-05-05T03:46:18.139Z,95781.63
2023-05-05T03:47:20.198Z,95765.97
2023-05-05T03:48:23.345Z,95777.75
2023-05-05T03:49:26.189Z,95778.53
2023-05-05T03:50:29.291Z,95778.06
2023-05-05T03:51:32.674Z,95780.72
2023-05-05T03:52:36.166Z,95778.53
2023-05-05T03:53:38.589Z,95785.56
2023-05-05T03:54:43.406Z,95777.63
2023-05-05T03:55:45.252Z,95776.13
2023-05-05T03:56:48.059Z,95778.06
2023-05-05T03:57:49.978Z,95774.56
2023-05-05T03:58:52.870Z,95777.75
2023-05-05T03:59:54.700Z,95778.97
2023-05-05T04:00:58.068Z,95770.72
2023-05-05T04:02:00.835Z,95776.22
2023-05-05T04:03:04.054Z,95778.22
2023-05-05T04:04:06.132Z,95777.88
2023-05-05T04:05:09.372Z,95777.88
2023-05-05T04:06:11.512Z,95777.88
2023-05-05T04:07:15.806Z,95774.81
2023-05-05T04:08:18.384Z,95770.06
2023-05-05T04:09:21.291Z,95767.31
2023-05-05T04:10:23.239Z,95776.31
2023-05-05T04:11:26.273Z,95769.31
2023-05-05T04:12:29.300Z,95767.31
2023-05-05T04:13:32.981Z,95769.31
2023-05-05T04:14:34.930Z,95767.00
2023-05-05T04:15:38.576Z,95763.03
2023-05-05T04:16:40.586Z,95769.31
2023-05-05T04:17:43.689Z,95770.53
2023-05-05T04:18:45.622Z,95773.28
2023-05-05T04:19:48.501Z,95774.81
2023-05-05T04:20:50.388Z,95774.47
2023-05-05T04:21:53.282Z,95776.03
2023-05-05T04:22:56.729Z,95778.47
2023-05-05T04:24:00.085Z,95775.69
2023-05-05T04:25:02.112Z,95777.66
2023-05-05T04:26:05.245Z,95774.16
2023-05-05T04:27:07.166Z,95781.63
2023-05-05T04:28:10.317Z,95780.88
2023-05-05T04:29:12.207Z,95783.63
2023-05-05T04:30:16.032Z,95775.38
2023-05-05T04:31:18.065Z,95782.06
2023-05-05T04:32:22.220Z,95783.63
2023-05-05T04:33:24.090Z,95783.97
2023-05-05T04:34:26.877Z,95779.66
2023-05-05T04:35:29.791Z,95781.63
2023-05-05T04:36:33.729Z,95779.66
2023-05-05T04:37:35.693Z,95781.22
2023-05-05T04:38:40.421Z,95787.91
2023-05-05T04:39:42.347Z,95785.06
2023-05-05T04:40:45.245Z,95787.34
2023-05-05T04:41:47.625Z,95787.34
2023-05-05T04:42:51.082Z,95792.72
2023-05-05T04:43:55.038Z,95795.03
2023-05-05T04:44:56.948Z,95791.06
2023-05-05T04:46:00.070Z,95796.00
2023-05-05T04:47:05.913Z,95801.50
2023-05-05T04:48:09.043Z,95797.88
2023-05-05T04:49:11.730Z,95792.25
2023-05-05T04:50:14.790Z,95801.16
2023-05-05T04:51:16.766Z,95799.81
2023-05-05T04:52:21.221Z,95791.88
2023-05-05T04:53:23.213Z,95797.31
2023-05-05T04:54:28.282Z,95788.78
2023-05-05T04:55:30.453Z,95792.31
2023-05-05T04:56:33.746Z,95794.09
2023-05-05T04:57:35.672Z,95791.88
2023-05-05T04:58:38.849Z,95796.28
2023-05-05T04:59:41.577Z,95791.22
2023-05-05T05:00:44.513Z,95799.94
2023-05-05T05:01:46.735Z,95803.13
2023-05-05T05:02:49.608Z,95807.09
2023-05-05T05:03:51.634Z,95802.81
2023-05-05T05:04:54.713Z,95814.47
2023-05-05T05:05:56.678Z,95805.56
2023-05-05T05:06:59.792Z,95814.31
2023-05-05T05:08:02.210Z,95806.56
2023-05-05T05:09:05.202Z,95811.84
2023-05-05T05:10:09.755Z,95814.47
2023-05-05T05:11:12.887Z,95806.53
2023-05-05T05:12:15.373Z,95813.25
2023-05-05T05:13:18.497Z,95814.47
2023-05-05T05:14:20.540Z,95812.03
2023-05-05T05:15:23.685Z,95814.22
2023-05-05T05:16:26.352Z,95818.25
2023-05-05T05:17:30.371Z,95814.44
2023-05-05T05:18:33.034Z,95808.72
2023-05-05T05:19:35.970Z,95816.72
2023-05-05T05:20:37.906Z,95821.47
2023-05-05T05:21:41.305Z,95823.69
2023-05-05T05:22:43.341Z,95815.47
2023-05-05T05:23:50.688Z,95818.53
2023-05-05T05:24:52.696Z,95823.13
2023-05-05T05:25:57.538Z,95812.09
2023-05-05T05:26:59.885Z,95817.75
2023-05-05T05:28:10.219Z,95805.91
2023-05-05T05:29:20.109Z,95814.44
2023-05-05T05:30:25.329Z,95806.78
2023-05-05T05:31:27.541Z,95811.31
2023-05-05T05:32:31.641Z,95813.16
2023-05-05T05:33:33.676Z,95810.47
2023-05-05T05:34:36.630Z,95812.50
2023-05-05T05:35:40.017Z,95812.09
2023-05-05T05:36:43.754Z,95812.47
2023-05-05T05:37:47.637Z,95807.31
2023-05-05T05:38:50.854Z,95807.38
2023-05-05T05:39:53.180Z,95809.66
2023-05-05T05:40:59.178Z,95810.13
2023-05-05T05:42:02.756Z,95814.69
2023-05-05T05:43:06.432Z,95805.91
2023-05-05T05:44:09.247Z,95819.09
2023-05-05T05:45:12.283Z,95809.81
2023-05-05T05:46:15.184Z,95815.50
2023-05-05T05:47:19.059Z,95816.88
2023-05-05T05:48:24.755Z,95811.06
2023-05-05T05:49:28.295Z,95810.81
2023-05-05T05:50:31.459Z,95816.03
2023-05-05T05:51:35.306Z,95816.97
2023-05-05T05:52:37.276Z,95813.91
2023-05-05T05:53:41.973Z,95819.28
2023-05-05T05:54:44.603Z,95816.22
2023-05-05T05:55:47.578Z,95816.84
2023-05-05T05:56:51.195Z,95819.16
2023-05-05T05:57:54.136Z,95816.53
2023-05-05T05:58:56.211Z,95817.00
2023-05-05T06:00:01.795Z,95823.16
2023-05-05T06:01:14.744Z,95819.31
2023-05-05T06:02:16.948Z,95822.09
2023-05-05T06:03:20.442Z,95821.94
2023-05-05T06:04:22.501Z,95820.69
2023-05-05T06:05:25.429Z,95814.25
2023-05-05T06:06:27.996Z,95818.56
2023-05-05T06:07:30.908Z,95817.94
2023-05-05T06:08:32.983Z,95821.63
2023-05-05T06:09:35.909Z,95817.03
2023-05-05T06:10:37.857Z,95818.59
2023-05-05T06:11:47.486Z,95819.66
2023-05-05T06:12:50.834Z,95820.59
2023-05-05T06:13:54.453Z,95815.50
2023-05-05T06:14:56.380Z,95822.72
2023-05-05T06:15:59.326Z,95824.41
2023-05-05T06:17:01.511Z,95818.25
2023-05-05T06:18:06.285Z,95818.66
2023-05-05T06:19:10.657Z,95823.13
2023-05-05T06:20:13.889Z,95817.75
2023-05-05T06:21:17.494Z,95812.50
2023-05-05T06:22:19.583Z,95812.50
2023-05-05T06:23:22.487Z,95819.13
2023-05-05T06:24:29.448Z,95820.38
2023-05-05T06:25:32.678Z,95816.09
2023-05-05T06:26:34.564Z,95815.34
2023-05-05T06:27:37.857Z,95819.97
2023-05-05T06:28:41.829Z,95825.03
2023-05-05T06:29:44.638Z,95816.44
2023-05-05T06:30:46.600Z,95828.72
2023-05-05T06:31:49.522Z,95824.72
2023-05-05T06:32:51.483Z,95824.09
2023-05-05T06:33:54.415Z,95819.50
2023-05-05T06:34:56.280Z,95822.69
2023-05-05T06:35:59.217Z,95826.66
2023-05-05T06:37:01.199Z,95829.13
2023-05-05T06:38:04.273Z,95827.72
2023-05-05T06:39:06.173Z,95829.38
2023-05-05T06:40:10.545Z,95838.59
2023-05-05T06:41:12.595Z,95834.13
2023-05-05T06:42:15.735Z,95829.66
2023-05-05T06:43:18.996Z,95833.78
2023-05-05T06:44:31.127Z,95831.31
2023-05-05T06:45:32.991Z,95835.94
2023-05-05T06:46:36.389Z,95827.91
2023-05-05T06:47:38.273Z,95836.53
2023-05-05T06:48:41.341Z,95842.38
2023-05-05T06:49:43.152Z,95835.91
2023-05-05T06:50:46.328Z,95843.31
2023-05-05T06:51:48.343Z,95836.06
2023-05-05T06:52:52.468Z,95844.66
2023-05-05T06:53:55.320Z,95837.44
2023-05-05T06:54:57.218Z,95842.00
2023-05-05T06:56:00.177Z,95836.78
2023-05-05T06:57:02.455Z,95839.84
2023-05-05T06:58:05.274Z,95830.34
2023-05-05T06:59:07.164Z,95832.91
2023-05-05T07:00:14.797Z,95829.69
2023-05-05T07:01:17.217Z,95832.75
2023-05-05T07:02:20.334Z,95837.81
2023-05-05T07:03:22.280Z,95831.03
2023-05-05T07:04:25.291Z,95840.41
2023-05-05T07:05:28.215Z,95835.19
2023-05-05T07:06:30.235Z,95833.94
2023-05-05T07:07:33.380Z,95835.47
2023-05-05T07:08:36.309Z,95834.53
2023-05-05T07:09:38.231Z,95833.56
2023-05-05T07:10:41.728Z,95841.44
2023-05-05T07:11:43.637Z,95831.09
2023-05-05T07:12:46.834Z,95834.94
2023-05-05T07:13:49.348Z,95831.41
2023-05-05T07:14:52.280Z,95827.13
2023-05-05T07:15:56.803Z,95830.19
2023-05-05T07:16:59.059Z,95831.72
2023-05-05T07:18:02.306Z,95830.94
2023-05-05T07:19:06.166Z,95824.16
2023-05-05T07:20:10.373Z,95830.47
2023-05-05T07:21:13.561Z,95828.00
2023-05-05T07:22:15.578Z,95827.81
2023-05-05T07:23:18.489Z,95826.56
2023-05-05T07:24:20.417Z,95828.41
2023-05-05T07:25:23.362Z,95827.94
2023-05-05T07:26:25.574Z,95829.47
2023-05-05T07:27:28.738Z,95827.75
2023-05-05T07:28:31.638Z,95833.91
2023-05-05T07:29:34.596Z,95830.63
2023-05-05T07:30:36.434Z,95835.25
2023-05-05T07:31:40.794Z,95828.75
2023-05-05T07:32:42.781Z,95830.56
2023-05-05T07:33:45.733Z,95825.34
2023-05-05T07:34:47.731Z,95823.63
2023-05-05T07:35:50.671Z,95829.75
2023-05-05T07:36:56.277Z,95828.03
2023-05-05T07:37:59.323Z,95827.28
2023-05-05T07:39:01.307Z,95829.59
2023-05-05T07:40:04.436Z,95827.56
2023-05-05T07:41:06.478Z,95836.66
2023-05-05T07:42:09.446Z,95821.56
2023-05-05T07:43:11.477Z,95824.03
2023-05-05T07:44:14.321Z,95824.03
2023-05-05T07:45:16.383Z,95825.84
2023-05-05T07:46:19.513Z,95824.63
2023-05-05T07:47:24.073Z,95824.91
2023-05-05T07:48:28.674Z,95822.91
2023-05-05T07:49:30.806Z,95822.44
2023-05-05T07:50:33.665Z,95829.53
2023-05-05T07:51:35.526Z,95826.78
2023-05-05T07:52:48.272Z,95821.53
2023-05-05T07:53:56.762Z,95826.09
2023-05-05T07:54:59.056Z,95826.41
2023-05-05T07:56:01.970Z,95825.66
2023-05-05T07:57:04.133Z,95829.19
2023-05-05T07:58:07.064Z,95823.63
2023-05-05T07:59:09.942Z,95823.94
2023-05-05T08:00:13.554Z,95827.00
2023-05-05T08:01:16.628Z,95824.22
2023-05-05T08:02:18.561Z,95817.88
2023-05-05T08:03:24.635Z,95824.97
2023-05-05T08:04:27.977Z,95832.34
2023-05-05T08:05:30.928Z,95824.03
2023-05-05T08:06:32.789Z,95826.78
2023-05-05T08:07:36.531Z,95827.56
2023-05-05T08:08:39.875Z,95834.66
2023-05-05T08:09:42.927Z,95828.63
2023-05-05T08:10:45.780Z,95828.13
2023-05-05T08:11:48.684Z,95829.97
2023-05-05T08:12:50.740Z,95828.72
2023-05-05T08:13:53.641Z,95826.25
2023-05-05T08:14:55.579Z,95825.28
2023-05-05T08:15:58.498Z,95816.78
2023-05-05T08:17:00.591Z,95826.44
2023-05-05T08:18:03.989Z,95829.53
2023-05-05T08:19:17.718Z,95831.03
2023-05-05T08:20:29.957Z,95821.50
2023-05-05T08:21:32.880Z,95831.03
2023-05-05T08:22:34.780Z,95823.19
2023-05-05T08:23:38.622Z,95826.75
2023-05-05T08:24:41.473Z,95829.53
2023-05-05T08:25:44.771Z,95821.97
2023-05-05T08:26:47.595Z,95824.72
2023-05-05T08:27:50.657Z,95819.94
2023-05-05T08:28:56.727Z,95829.53
2023-05-05T08:29:59.085Z,95820.72
2023-05-05T08:31:02.025Z,95824.25
2023-05-05T08:32:05.093Z,95818.97
2023-05-05T08:33:07.128Z,95817.28
2023-05-05T08:34:11.528Z,95821.13
2023-05-05T08:35:13.713Z,95817.38
2023-05-05T08:36:16.938Z,95825.03
2023-05-05T08:37:18.977Z,95813.47
2023-05-05T08:38:21.843Z,95809.44
2023-05-05T08:39:23.818Z,95812.50
2023-05-05T08:40:30.569Z,95823.78
2023-05-05T08:41:34.262Z,95811.44
2023-05-05T08:42:38.482Z,95811.72
2023-05-05T08:43:44.531Z,95812.50
2023-05-05T08:44:46.513Z,95816.03
2023-05-05T08:45:51.232Z,95819.09
2023-05-05T08:46:54.273Z,95817.09
2023-05-05T08:47:58.248Z,95814.03
2023-05-05T08:49:03.773Z,95812.50
2023-05-05T08:50:10.967Z,95809.53
2023-05-05T08:51:19.520Z,95815.38
2023-05-05T08:52:24.211Z,95816.59
2023-05-05T08:53:37.200Z,95824.94
2023-05-05T08:54:45.766Z,95822.91
2023-05-05T08:55:52.526Z,95817.66
2023-05-05T08:57:01.851Z,95818.63
2023-05-05T08:58:05.219Z,95825.69
2023-05-05T08:59:09.586Z,95825.69
2023-05-05T09:00:13.468Z,95823.19
2023-05-05T09:01:17.919Z,95834.59
2023-05-05T09:02:23.757Z,95827.31
2023-05-05T09:03:28.093Z,95830.88
2023-05-05T09:04:30.290Z,95833.44
2023-05-05T09:05:34.590Z,95827.88
2023-05-05T09:06:38.063Z,95826.38
2023-05-05T09:07:41.322Z,95826.66
2023-05-05T09:08:44.503Z,95826.66
2023-05-05T09:09:46.483Z,95825.41
2023-05-05T09:10:52.185Z,95825.41
2023-05-05T09:11:56.745Z,95825.69
2023-05-05T09:12:59.372Z,95818.88
2023-05-05T09:14:02.783Z,95824.72
2023-05-05T09:15:05.461Z,95818.72
2023-05-05T09:16:09.170Z,95817.44
2023-05-05T09:17:23.608Z,95819.75
2023-05-05T09:18:26.573Z,95815.75
2023-05-05T09:19:29.540Z,95813.25
2023-05-05T09:20:36.984Z,95821.59
2023-05-05T09:21:48.910Z,95811.28
2023-05-05T09:22:53.162Z,95816.31
2023-05-05T09:24:10.068Z,95812.03
2023-05-05T09:25:14.278Z,95814.06
2023-05-05T09:26:16.469Z,95814.06
2023-05-05T09:27:23.431Z,95809.25
2023-05-05T09:28:25.991Z,95811.56
2023-05-05T09:29:28.950Z,95813.38
2023-05-05T09:30:31.985Z,95811.91
2023-05-05T09:31:35.029Z,95806.94
2023-05-05T09:32:45.508Z,95805.22
2023-05-05T09:33:47.508Z,95802.72
2023-05-05T09:34:58.903Z,95805.97
2023-05-05T09:36:02.183Z,95805.69
2023-05-05T09:37:06.117Z,95803.19
2023-05-05T09:38:13.185Z,95803.94
2023-05-05T09:39:17.552Z,95803.19
2023-05-05T09:40:21.838Z,95798.13
2023-05-05T09:41:37.583Z,95796.59
2023-05-05T09:42:41.130Z,95796.59
2023-05-05T09:43:52.384Z,95803.66
2023-05-05T09:44:54.780Z,95797.34
2023-05-05T09:46:07.317Z,95795.16
2023-05-05T09:47:22.164Z,95805.00
2023-05-05T09:48:33.048Z,95803.75
2023-05-05T09:49:36.778Z,95804.81
2023-05-05T09:50:44.572Z,95801.81
2023-05-05T09:51:49.289Z,95806.91
2023-05-05T09:52:56.232Z,95804.59
2023-05-05T09:53:58.221Z,95794.75
2023-05-05T09:55:01.271Z,95795.78
2023-05-05T09:56:04.247Z,95792.81
2023-05-05T09:57:06.628Z,95795.59
2023-05-05T09:58:20.373Z,95799.63
2023-05-05T09:59:23.802Z,95800.38
2023-05-05T10:00:38.685Z,95796.53
2023-05-05T10:01:43.330Z,95802.38
2023-05-05T10:02:46.508Z,95793.09
2023-05-05T10:03:52.751Z,95796.94
2023-05-05T10:05:06.225Z,95793.66
2023-05-05T10:06:09.135Z,95802.25
2023-05-05T10:07:23.016Z,95790.22
2023-05-05T10:08:28.076Z,95786.75
2023-05-05T10:09:31.673Z,95789.78
2023-05-05T10:10:34.695Z,95779.91
2023-05-05T10:11:36.977Z,95778.69
2023-05-05T10:12:40.460Z,95783.25
2023-05-05T10:13:43.084Z,95787.09
2023-05-05T10:14:46.194Z,95780.53
2023-05-05T10:15:50.124Z,95778.84
2023-05-05T10:16:55.977Z,95782.66
2023-05-05T10:18:07.707Z,95777.84
2023-05-05T10:19:14.278Z,95785.72
2023-05-05T10:20:17.609Z,95781.66
2023-05-05T10:21:21.466Z,95782.44
2023-05-05T10:22:27.174Z,95770.50
2023-05-05T10:23:34.608Z,95778.84
2023-05-05T10:24:41.337Z,95772.50
2023-05-05T10:25:50.532Z,95777.28
2023-05-05T10:26:54.875Z,95775.06
2023-05-05T10:28:01.174Z,95768.81
2023-05-05T10:29:08.554Z,95767.06
2023-05-05T10:30:17.341Z,95771.69
2023-05-05T10:31:26.770Z,95772.44
2023-05-05T10:32:55.960Z,95767.63
2023-05-05T10:34:05.055Z,95768.13
2023-05-05T10:35:09.837Z,95771.19
2023-05-05T10:36:13.863Z,95754.78
2023-05-05T10:37:18.387Z,95759.88
2023-05-05T10:38:24.816Z,95760.91
2023-05-05T10:39:30.228Z,95755.94
2023-05-05T10:40:32.349Z,95762.03
2023-05-05T10:41:35.346Z,95753.97
2023-05-05T10:42:39.214Z,95754.50
2023-05-05T10:43:43.251Z,95760.06
2023-05-05T10:44:45.160Z,95771.19
2023-05-05T10:45:48.326Z,95756.75
2023-05-05T10:46:51.124Z,95761.78
2023-05-05T10:47:57.037Z,95756.84
2023-05-05T10:49:04.734Z,95759.59
2023-05-05T10:50:15.433Z,95752.72
2023-05-05T10:51:39.449Z,95751.16
2023-05-05T10:52:55.636Z,95751.16
2023-05-05T10:54:08.874Z,95744.09
2023-05-05T10:55:17.716Z,95752.22
2023-05-05T10:56:26.608Z,95745.88
2023-05-05T10:57:30.555Z,95745.22
2023-05-05T10:58:38.540Z,95745.75
2023-05-05T10:59:47.576Z,95747.28
2023-05-05T11:00:51.430Z,95743.28
2023-05-05T11:01:54.418Z,95740.78
2023-05-05T11:03:21.990Z,95745.56
2023-05-05T11:04:25.243Z,95736.47
2023-05-05T11:05:28.092Z,95738.28
2023-05-05T11:06:31.073Z,95741.53
2023-05-05T11:07:34.402Z,95737.25
2023-05-05T11:08:37.540Z,95739.25
2023-05-05T11:09:55.866Z,95735.69
2023-05-05T11:10:58.047Z,95732.91
2023-05-05T11:12:05.032Z,95735.22
2023-05-05T11:13:29.061Z,95726.16
2023-05-05T11:14:30.962Z,95728.25
2023-05-05T11:15:38.021Z,95729.78
2023-05-05T11:16:45.921Z,95727.84
2023-05-05T11:17:48.327Z,95727.59
2023-05-05T11:18:51.324Z,95711.78
2023-05-05T11:19:53.376Z,95711.50
2023-05-05T11:21:16.532Z,95711.31
2023-05-05T11:22:18.566Z,95716.13
2023-05-05T11:23:24.286Z,95717.06
2023-05-05T11:24:29.987Z,95712.78
2023-05-05T11:25:48.755Z,95712.50
2023-05-05T11:26:52.658Z,95708.69
2023-05-05T11:28:08.177Z,95709.16
2023-05-05T11:29:11.108Z,95712.22
2023-05-05T11:30:15.100Z,95700.63
2023-05-05T11:31:21.577Z,95703.88
2023-05-05T11:32:24.455Z,95708.50
2023-05-05T11:33:28.409Z,95703.69
2023-05-05T11:34:31.349Z,95701.88
2023-05-05T11:35:54.791Z,95706.19
2023-05-05T11:37:01.341Z,95706.66
2023-05-05T11:38:07.515Z,95704.91
2023-05-05T11:39:22.953Z,95705.72
2023-05-05T11:40:36.318Z,95700.66
2023-05-05T11:41:53.049Z,95703.44
2023-05-05T11:43:07.184Z,95699.16
2023-05-05T11:44:10.389Z,95706.19
2023-05-05T11:45:24.080Z,95701.09
2023-05-05T11:46:26.036Z,95702.38
2023-05-05T11:47:30.809Z,95700.56
2023-05-05T11:48:33.728Z,95700.56
2023-05-05T11:49:36.576Z,95702.09
2023-05-05T11:50:39.808Z,95690.97
2023-05-05T11:51:41.923Z,95699.59
2023-05-05T11:52:44.913Z,95694.03
2023-05-05T11:53:48.254Z,95694.31
2023-05-05T11:54:51.364Z,95696.81
2023-05-05T11:56:07.347Z,95695.56
2023-05-05T11:57:10.747Z,95685.97
2023-05-05T11:58:19.910Z,95691.53
2023-05-05T11:59:22.631Z,95693.53
2023-05-05T12:00:35.263Z,95691.53
2023-05-05T12:01:40.037Z,95693.03
2023-05-05T12:02:43.048Z,95695.34
2023-05-05T12:03:45.733Z,95694.59
2023-05-05T12:04:49.216Z,95686.25
2023-05-05T12:05:55.413Z,95689.28
2023-05-05T12:06:58.715Z,95693.88
2023-05-05T12:08:02.543Z,95692.59
2023-05-05T12:09:04.550Z,95688.56
2023-05-05T12:10:08.628Z,95690.09
2023-05-05T12:11:11.208Z,95688.84
2023-05-05T12:12:16.830Z,95689.13
2023-05-05T12:13:19.347Z,95688.63
2023-05-05T12:14:23.185Z,95675.47
2023-05-05T12:15:30.257Z,95687.88
2023-05-05T12:16:32.194Z,95679.53
2023-05-05T12:17:40.724Z,95678.75
2023-05-05T12:18:43.194Z,95678.75
2023-05-05T12:19:47.220Z,95682.78
2023-05-05T12:20:51.167Z,95679.53
2023-05-05T12:21:54.294Z,95683.56
2023-05-05T12:23:00.968Z,95685.06
2023-05-05T12:24:03.353Z,95676.47
2023-05-05T12:25:08.272Z,95678.97
2023-05-05T12:26:24.913Z,95676.47
2023-05-05T12:27:29.732Z,95679.53
2023-05-05T12:28:44.766Z,95676.53
2023-05-05T12:29:46.727Z,95680.81
2023-05-05T12:30:57.742Z,95673.22
2023-05-05T12:32:00.366Z,95676.78
2023-05-05T12:33:04.445Z,95666.44
2023-05-05T12:34:07.816Z,95675.25
2023-05-05T12:35:11.605Z,95673.50
2023-05-05T12:36:14.395Z,95676.88
2023-05-05T12:37:19.133Z,95664.22
2023-05-05T12:38:22.150Z,95669.03
2023-05-05T12:39:34.705Z,95669.50
2023-05-05T12:40:48.141Z,95665.44
2023-05-05T12:41:50.529Z,95658.38
2023-05-05T12:42:54.817Z,95662.38
2023-05-05T12:43:57.546Z,95659.31